createdAt,value
2023-01-25T00:00:48.879Z,103393.25
2023-01-25T00:03:15.319Z,103392.41
2023-01-25T00:05:41.806Z,103385.56
2023-01-25T00:08:08.327Z,103370.16
2023-01-25T00:10:34.752Z,103365.88
2023-01-25T00:13:01.166Z,103377.78
2023-01-25T00:15:27.572Z,103372.69
2023-01-25T00:17:53.949Z,103380.41
2023-01-25T00:20:20.373Z,103362.50
2023-01-25T00:22:46.825Z,103348.13
2023-01-25T00:25:13.219Z,103370.06
2023-01-25T00:27:40.181Z,103358.25
2023-01-25T00:30:07.093Z,103351.34
2023-01-25T00:32:58.407Z,103360.72
2023-01-25T00:35:31.399Z,103354.88
2023-01-25T00:38:01.748Z,103358.25
2023-01-25T00:40:28.137Z,103353.09
2023-01-25T00:42:54.580Z,103350.53
2023-01-25T00:45:20.974Z,103353.94
2023-01-25T00:47:47.378Z,103348.84
2023-01-25T00:50:13.758Z,103350.63
2023-01-25T00:52:40.534Z,103360.91
2023-01-25T00:55:07.919Z,103346.44
2023-01-25T00:57:34.506Z,103333.06
2023-01-25T01:00:00.866Z,103337.31
2023-01-25T01:02:27.554Z,103351.75
2023-01-25T01:04:56.553Z,103357.69
2023-01-25T01:07:23.315Z,103356.84
2023-01-25T01:09:49.692Z,103340.63
2023-01-25T01:12:16.088Z,103352.53
2023-01-25T01:14:42.517Z,103344.03
2023-01-25T01:17:08.900Z,103354.44
2023-01-25T01:19:35.349Z,103336.47
2023-01-25T01:22:01.811Z,103342.34
2023-01-25T01:24:28.234Z,103325.28
2023-01-25T01:26:54.829Z,103337.22
2023-01-25T01:29:21.326Z,103338.06
2023-01-25T01:31:52.066Z,103330.63
2023-01-25T01:34:19.011Z,103332.34
2023-01-25T01:36:45.661Z,103335.75
2023-01-25T01:39:12.322Z,103322.03
2023-01-25T01:41:39.980Z,103320.53
2023-01-25T01:44:10.463Z,103324.59
2023-01-25T01:46:40.207Z,103327.13
2023-01-25T01:49:15.793Z,103316.91
2023-01-25T01:51:49.639Z,103322.72
2023-01-25T01:54:49.899Z,103323.53
2023-01-25T01:57:29.835Z,103331.28
2023-01-25T02:00:05.692Z,103324.44
2023-01-25T02:02:32.155Z,103321.88
2023-01-25T02:05:04.374Z,103326.97
2023-01-25T02:07:38.680Z,103325.28
2023-01-25T02:10:08.165Z,103338.16
2023-01-25T02:12:36.599Z,103332.19
2023-01-25T02:15:03.972Z,103334.63
2023-01-25T02:17:36.439Z,103328.75
2023-01-25T02:20:20.505Z,103335.56
2023-01-25T02:22:56.124Z,103340.69
2023-01-25T02:25:22.534Z,103331.28
2023-01-25T02:27:54.680Z,103331.50
2023-01-25T02:30:21.687Z,103331.34
2023-01-25T02:32:48.109Z,103325.41
2023-01-25T02:35:36.095Z,103325.34
2023-01-25T02:38:02.836Z,103317.75
2023-01-25T02:40:31.587Z,103321.94
2023-01-25T02:42:58.410Z,103306.66
2023-01-25T02:45:29.824Z,103294.06
2023-01-25T02:47:56.340Z,103316.00
2023-01-25T02:50:22.755Z,103311.75
2023-01-25T02:52:49.301Z,103308.38
2023-01-25T02:55:15.713Z,103285.41
2023-01-25T02:57:42.195Z,103298.94
2023-01-25T03:00:09.237Z,103297.31
2023-01-25T03:02:38.037Z,103289.59
2023-01-25T03:05:04.989Z,103282.75
2023-01-25T03:07:31.408Z,103277.63
2023-01-25T03:09:57.820Z,103280.91
2023-01-25T03:12:24.293Z,103287.78
2023-01-25T03:14:50.679Z,103282.66
2023-01-25T03:17:17.058Z,103269.84
2023-01-25T03:19:43.452Z,103269.00
2023-01-25T03:22:11.024Z,103259.72
2023-01-25T03:24:37.431Z,103261.28
2023-01-25T03:27:11.274Z,103254.56
2023-01-25T03:29:38.194Z,103250.31
2023-01-25T03:32:05.188Z,103231.66
2023-01-25T03:34:31.697Z,103224.66
2023-01-25T03:36:58.099Z,103245.22
2023-01-25T03:39:24.743Z,103229.91
2023-01-25T03:41:51.147Z,103217.16
2023-01-25T03:44:17.502Z,103231.53
2023-01-25T03:46:44.064Z,103230.69
2023-01-25T03:49:10.771Z,103239.03
2023-01-25T03:51:37.602Z,103240.00
2023-01-25T03:54:04.722Z,103231.53
2023-01-25T03:56:31.229Z,103224.72
2023-01-25T03:58:57.600Z,103217.75
2023-01-25T04:01:24.102Z,103213.53
2023-01-25T04:03:50.568Z,103220.38
2023-01-25T04:06:16.966Z,103222.06
2023-01-25T04:08:43.427Z,103211.84
2023-01-25T04:11:10.522Z,103217.16
2023-01-25T04:13:38.439Z,103201.06
2023-01-25T04:16:08.265Z,103177.19
2023-01-25T04:18:34.682Z,103203.56
2023-01-25T04:21:01.159Z,103195.91
2023-01-25T04:23:27.542Z,103196.00
2023-01-25T04:25:58.157Z,103198.41
2023-01-25T04:28:24.961Z,103197.59
2023-01-25T04:30:55.964Z,103182.50
2023-01-25T04:33:23.014Z,103185.97
2023-01-25T04:35:49.641Z,103202.13
2023-01-25T04:38:16.710Z,103190.28
2023-01-25T04:40:43.716Z,103205.47
2023-01-25T04:43:13.112Z,103179.09
2023-01-25T04:45:39.601Z,103191.66
2023-01-25T04:48:09.850Z,103192.50
2023-01-25T04:50:40.653Z,103189.81
2023-01-25T04:53:08.549Z,103170.41
2023-01-25T04:55:35.280Z,103180.50
2023-01-25T04:58:02.567Z,103182.88
2023-01-25T05:00:29.899Z,103186.34
2023-01-25T05:02:56.495Z,103184.72
2023-01-25T05:05:22.898Z,103183.78
2023-01-25T05:07:49.412Z,103192.28
2023-01-25T05:10:15.854Z,103186.41
2023-01-25T05:12:42.195Z,103178.25
2023-01-25T05:15:09.228Z,103187.59
2023-01-25T05:17:35.927Z,103197.88
2023-01-25T05:20:03.129Z,103198.88
2023-01-25T05:22:29.520Z,103199.78
2023-01-25T05:24:55.941Z,103188.63
2023-01-25T05:27:23.010Z,103189.38
2023-01-25T05:29:49.446Z,103194.53
2023-01-25T05:32:19.060Z,103184.34
2023-01-25T05:34:45.906Z,103187.06
2023-01-25T05:37:15.029Z,103162.59
2023-01-25T05:39:41.771Z,103180.34
2023-01-25T05:42:16.923Z,103184.50
2023-01-25T05:44:46.308Z,103177.63
2023-01-25T05:47:15.989Z,103172.44
2023-01-25T05:49:42.689Z,103178.44
2023-01-25T05:52:16.605Z,103177.59
2023-01-25T05:54:43.091Z,103171.28
2023-01-25T05:57:09.740Z,103174.03
2023-01-25T05:59:36.381Z,103166.41
2023-01-25T06:02:02.762Z,103172.44
2023-01-25T06:04:29.295Z,103187.84
2023-01-25T06:06:55.762Z,103185.41
2023-01-25T06:09:23.399Z,103185.41
2023-01-25T06:11:49.838Z,103182.72
2023-01-25T06:14:16.222Z,103184.44
2023-01-25T06:16:42.665Z,103190.16
2023-01-25T06:19:09.335Z,103179.31
2023-01-25T06:21:38.677Z,103195.41
2023-01-25T06:24:05.754Z,103197.97
2023-01-25T06:26:32.360Z,103192.00
2023-01-25T06:28:59.054Z,103185.94
2023-01-25T06:31:25.710Z,103185.84
2023-01-25T06:33:52.972Z,103173.16
2023-01-25T06:36:20.977Z,103169.00
2023-01-25T06:38:52.017Z,103178.44
2023-01-25T06:41:19.732Z,103168.91
2023-01-25T06:43:47.775Z,103168.91
2023-01-25T06:46:14.329Z,103168.00
2023-01-25T06:48:42.925Z,103157.72
2023-01-25T06:51:12.244Z,103153.50
2023-01-25T06:53:41.417Z,103140.84
2023-01-25T06:56:11.791Z,103160.38
2023-01-25T06:58:39.245Z,103167.94
2023-01-25T07:01:13.176Z,103166.50
2023-01-25T07:03:40.029Z,103167.34
2023-01-25T07:06:08.601Z,103158.13
2023-01-25T07:08:36.400Z,103176.00
2023-01-25T07:11:05.460Z,103170.25
2023-01-25T07:13:33.583Z,103171.03
2023-01-25T07:16:03.180Z,103161.72
2023-01-25T07:18:31.151Z,103161.69
2023-01-25T07:21:08.410Z,103150.47
2023-01-25T07:23:36.008Z,103166.72
2023-01-25T07:26:02.454Z,103139.63
2023-01-25T07:28:29.117Z,103155.63
2023-01-25T07:30:55.520Z,103148.00
2023-01-25T07:33:21.893Z,103140.28
2023-01-25T07:35:50.909Z,103147.84
2023-01-25T07:38:17.695Z,103148.63
2023-01-25T07:40:44.092Z,103135.75
2023-01-25T07:43:10.595Z,103145.03
2023-01-25T07:45:37.103Z,103146.88
2023-01-25T07:48:10.449Z,103148.00
2023-01-25T07:50:36.821Z,103147.94
2023-01-25T07:53:03.234Z,103146.38
2023-01-25T07:55:29.636Z,103146.28
2023-01-25T07:57:56.038Z,103133.66
2023-01-25T08:00:24.011Z,103138.69
2023-01-25T08:02:51.822Z,103125.03
2023-01-25T08:05:18.786Z,103116.53
2023-01-25T08:07:46.146Z,103125.59
2023-01-25T08:10:12.685Z,103128.22
2023-01-25T08:12:39.087Z,103120.66
2023-01-25T08:15:06.217Z,103123.97
2023-01-25T08:17:33.877Z,103133.31
2023-01-25T08:20:01.520Z,103129.13
2023-01-25T08:22:30.686Z,103131.00
2023-01-25T08:24:57.095Z,103124.31
2023-01-25T08:27:23.916Z,103101.56
2023-01-25T08:29:50.563Z,103120.94
2023-01-25T08:32:17.057Z,103130.19
2023-01-25T08:34:43.389Z,103129.13
2023-01-25T08:37:09.863Z,103108.84
2023-01-25T08:39:36.217Z,103127.44
2023-01-25T08:42:02.770Z,103131.63
2023-01-25T08:44:29.242Z,103122.03
2023-01-25T08:46:55.591Z,103121.06
2023-01-25T08:49:22.061Z,103118.31
2023-01-25T08:51:50.199Z,103109.78
2023-01-25T08:54:16.610Z,103112.50
2023-01-25T08:56:43.172Z,103097.38
2023-01-25T08:59:12.891Z,103109.94
2023-01-25T09:01:39.414Z,103099.88
2023-01-25T09:04:06.002Z,103100.72
2023-01-25T09:06:33.311Z,103107.31
2023-01-25T09:09:04.602Z,103095.53
2023-01-25T09:11:34.535Z,103099.66
2023-01-25T09:14:00.921Z,103095.25
2023-01-25T09:16:30.579Z,103097.03
2023-01-25T09:19:03.622Z,103088.53
2023-01-25T09:21:30.440Z,103085.97
2023-01-25T09:24:06.543Z,103090.81
2023-01-25T09:26:36.962Z,103097.69
2023-01-25T09:29:03.759Z,103095.25
2023-01-25T09:31:30.580Z,103086.72
2023-01-25T09:33:58.145Z,103086.69
2023-01-25T09:36:24.639Z,103083.22
2023-01-25T09:38:51.006Z,103084.06
2023-01-25T09:41:39.006Z,103085.84
2023-01-25T09:44:31.470Z,103067.03
2023-01-25T09:47:16.683Z,103076.47
2023-01-25T09:50:22.547Z,103066.28
2023-01-25T09:52:59.426Z,103075.50
2023-01-25T09:55:28.060Z,103074.63
2023-01-25T09:58:00.113Z,103072.81
2023-01-25T10:00:32.430Z,103050.16
2023-01-25T10:03:25.634Z,103062.84
2023-01-25T10:05:55.782Z,103057.69
2023-01-25T10:08:32.768Z,103053.44
2023-01-25T10:11:19.265Z,103060.13
2023-01-25T10:13:45.864Z,103045.00
2023-01-25T10:16:43.100Z,103062.81
2023-01-25T10:19:34.707Z,103055.78
2023-01-25T10:22:24.168Z,103052.28
2023-01-25T10:25:18.594Z,103052.34
2023-01-25T10:28:02.631Z,103048.06
2023-01-25T10:30:31.389Z,103034.53
2023-01-25T10:33:10.228Z,103039.50
2023-01-25T10:35:42.693Z,103036.88
2023-01-25T10:38:42.366Z,103032.69
2023-01-25T10:41:28.744Z,103031.13
2023-01-25T10:44:21.020Z,103017.63
2023-01-25T10:46:52.568Z,103027.66
2023-01-25T10:49:32.429Z,103013.19
2023-01-25T10:52:13.795Z,103011.41
2023-01-25T10:54:40.218Z,103016.59
2023-01-25T10:57:09.104Z,103024.13
2023-01-25T10:59:36.436Z,103001.66
2023-01-25T11:02:41.656Z,102949.25
2023-01-25T11:05:33.031Z,102977.47
2023-01-25T11:08:21.605Z,102959.78
2023-01-25T11:10:48.331Z,102947.97
2023-01-25T11:13:14.676Z,102969.28
2023-01-25T11:15:51.086Z,102962.56
2023-01-25T11:18:31.569Z,102927.06
2023-01-25T11:21:19.230Z,102955.66
2023-01-25T11:24:11.814Z,102939.53
2023-01-25T11:26:40.627Z,102940.91
2023-01-25T11:29:10.806Z,102940.81
2023-01-25T11:31:37.831Z,102890.75
2023-01-25T11:34:10.170Z,102927.84
2023-01-25T11:36:42.450Z,102915.78
2023-01-25T11:39:39.071Z,102918.38
2023-01-25T11:42:11.208Z,102916.44
2023-01-25T11:44:46.591Z,102910.38
2023-01-25T11:47:27.423Z,102900.94
2023-01-25T11:50:23.318Z,102901.84
2023-01-25T11:53:16.181Z,102881.25
2023-01-25T11:56:06.009Z,102881.19
2023-01-25T11:58:42.810Z,102872.63
2023-01-25T12:01:20.986Z,102874.09
2023-01-25T12:04:17.782Z,102859.78
2023-01-25T12:06:58.622Z,102856.53
2023-01-25T12:10:04.334Z,102832.53
2023-01-25T12:12:51.674Z,102834.25
2023-01-25T12:15:45.947Z,102827.53
2023-01-25T12:18:33.903Z,102825.72
2023-01-25T12:21:07.969Z,102810.44
2023-01-25T12:24:10.383Z,102813.78
2023-01-25T12:27:15.974Z,102808.84
2023-01-25T12:30:00.544Z,102798.56
2023-01-25T12:32:38.883Z,102790.84
2023-01-25T12:35:37.200Z,102783.03
2023-01-25T12:38:08.594Z,102772.91
2023-01-25T12:40:49.097Z,102758.41
2023-01-25T12:43:20.733Z,102762.63
2023-01-25T12:45:51.521Z,102751.38
2023-01-25T12:48:32.412Z,102748.78
2023-01-25T12:50:59.893Z,102736.09
2023-01-25T12:53:35.578Z,102738.53
2023-01-25T12:56:04.769Z,102673.44
2023-01-25T12:58:41.889Z,102694.50
2023-01-25T13:01:33.702Z,102714.38
2023-01-25T13:04:25.819Z,102709.09
2023-01-25T13:07:08.694Z,102702.44
2023-01-25T13:09:52.003Z,102703.34
2023-01-25T13:12:18.646Z,102699.13
2023-01-25T13:14:45.115Z,102700.00
2023-01-25T13:17:11.449Z,102705.22
2023-01-25T13:19:38.027Z,102705.28
2023-01-25T13:22:05.442Z,102688.34
2023-01-25T13:24:34.139Z,102697.34
2023-01-25T13:27:05.635Z,102689.22
2023-01-25T13:29:46.921Z,102691.84
2023-01-25T13:32:34.817Z,102686.78
2023-01-25T13:35:02.145Z,102690.16
2023-01-25T13:37:31.513Z,102665.59
2023-01-25T13:40:14.634Z,102672.16
2023-01-25T13:42:42.372Z,102684.19
2023-01-25T13:45:18.676Z,102663.94
2023-01-25T13:48:00.514Z,102663.78
2023-01-25T13:50:31.539Z,102673.69
2023-01-25T13:53:07.234Z,102659.47
2023-01-25T13:55:42.413Z,102654.34
2023-01-25T13:58:10.733Z,102647.75
2023-01-25T14:00:37.435Z,102666.34
2023-01-25T14:03:06.551Z,102659.63
2023-01-25T14:05:33.208Z,102660.47
2023-01-25T14:07:59.818Z,102650.16
2023-01-25T14:10:27.836Z,102638.16
2023-01-25T14:12:59.877Z,102657.88
2023-01-25T14:15:32.370Z,102657.91
2023-01-25T14:18:19.129Z,102645.94
2023-01-25T14:20:53.429Z,102657.06
2023-01-25T14:23:24.811Z,102647.97
2023-01-25T14:25:52.404Z,102647.13
2023-01-25T14:28:19.222Z,102649.69
2023-01-25T14:30:51.257Z,102636.78
2023-01-25T14:33:20.106Z,102640.81
2023-01-25T14:35:59.989Z,102638.53
2023-01-25T14:38:35.226Z,102637.47
2023-01-25T14:41:18.472Z,102631.75
2023-01-25T14:43:54.374Z,102634.28
2023-01-25T14:46:26.934Z,102638.44
2023-01-25T14:49:11.850Z,102634.16
2023-01-25T14:52:13.755Z,102615.25
2023-01-25T14:54:56.034Z,102603.09
2023-01-25T14:57:40.181Z,102609.19
2023-01-25T15:00:18.389Z,102605.81
2023-01-25T15:02:48.552Z,102612.06
2023-01-25T15:05:29.329Z,102618.06
2023-01-25T15:07:58.633Z,102605.47
2023-01-25T15:10:27.263Z,102622.72
2023-01-25T15:13:14.963Z,102619.31
2023-01-25T15:15:57.957Z,102606.44
2023-01-25T15:18:48.181Z,102608.81
2023-01-25T15:21:30.097Z,102600.56
2023-01-25T15:24:04.754Z,102590.66
2023-01-25T15:26:33.329Z,102598.41
2023-01-25T15:29:13.628Z,102598.38
2023-01-25T15:31:40.176Z,102603.66
2023-01-25T15:34:13.243Z,102594.91
2023-01-25T15:36:39.640Z,102603.50
2023-01-25T15:39:10.726Z,102593.91
2023-01-25T15:41:37.122Z,102581.22
2023-01-25T15:44:03.600Z,102590.66
2023-01-25T15:46:33.556Z,102586.44
2023-01-25T15:49:00.776Z,102579.41
2023-01-25T15:51:28.485Z,102583.72
2023-01-25T15:53:55.253Z,102576.16
2023-01-25T15:56:31.075Z,102575.94
2023-01-25T15:59:06.002Z,102574.59
2023-01-25T16:01:32.517Z,102566.78
2023-01-25T16:04:00.171Z,102561.09
2023-01-25T16:06:35.224Z,102567.72
2023-01-25T16:09:23.338Z,102560.34
2023-01-25T16:11:58.506Z,102563.75
2023-01-25T16:14:30.214Z,102552.88
2023-01-25T16:17:04.009Z,102553.78
2023-01-25T16:19:31.453Z,102544.56
2023-01-25T16:21:58.104Z,102555.63
2023-01-25T16:24:24.688Z,102558.91
2023-01-25T16:27:01.127Z,102558.00
2023-01-25T16:29:28.312Z,102549.25
2023-01-25T16:31:55.905Z,102551.00
2023-01-25T16:34:24.835Z,102540.88
2023-01-25T16:36:51.445Z,102535.78
2023-01-25T16:39:21.093Z,102543.34
2023-01-25T16:41:48.702Z,102543.34
2023-01-25T16:44:15.553Z,102531.41
2023-01-25T16:46:42.621Z,102531.41
2023-01-25T16:49:16.341Z,102532.25
2023-01-25T16:51:42.768Z,102529.47
2023-01-25T16:54:14.070Z,102524.41
2023-01-25T16:56:40.550Z,102521.00
2023-01-25T16:59:09.256Z,102519.97
2023-01-25T17:01:38.194Z,102532.84
2023-01-25T17:04:04.667Z,102535.66
2023-01-25T17:06:33.840Z,102536.72
2023-01-25T17:09:12.608Z,102542.75
2023-01-25T17:11:43.264Z,102550.44
2023-01-25T17:14:14.529Z,102553.63
2023-01-25T17:16:41.010Z,102555.44
2023-01-25T17:19:12.180Z,102541.75
2023-01-25T17:21:38.530Z,102535.03
2023-01-25T17:24:05.400Z,102545.19
2023-01-25T17:26:32.364Z,102539.44
2023-01-25T17:31:34.566Z,102501.91
2023-01-25T17:34:03.369Z,102511.47
2023-01-25T18:06:09.063Z,102440.38
2023-01-25T18:56:04.685Z,102414.22
2023-01-25T20:24:48.323Z,102310.63
2023-01-25T20:27:14.748Z,102340.56
2023-01-25T20:34:58.346Z,102360.78
2023-01-25T20:37:24.694Z,102328.81
2023-01-25T20:39:51.071Z,102324.31
2023-01-25T20:42:17.482Z,102337.59
2023-01-25T20:44:43.940Z,102333.53
2023-01-25T20:47:10.366Z,102343.63
2023-01-25T20:49:38.251Z,102313.22
2023-01-25T20:52:07.339Z,102329.44
2023-01-25T20:54:34.161Z,102310.31
2023-01-25T20:57:00.638Z,102333.78
2023-01-25T21:02:13.790Z,102326.09
2023-01-25T21:04:40.306Z,102325.31
2023-01-25T21:10:24.778Z,102309.38
2023-01-25T21:18:35.129Z,102333.94
2023-01-25T21:21:07.601Z,102333.09
2023-01-25T21:23:35.129Z,102337.25
2023-01-25T21:26:02.891Z,102319.44
2023-01-25T21:28:30.223Z,102301.72
2023-01-25T21:30:57.242Z,102266.34
2023-01-25T21:33:24.332Z,102241.22
2023-01-25T21:35:54.343Z,102261.88
2023-01-25T21:38:21.370Z,102218.28
2023-01-25T21:40:48.081Z,102266.09
2023-01-25T22:08:50.774Z,102286.72
2023-01-25T22:55:10.748Z,102159.84
2023-01-25T22:57:37.227Z,102169.25
2023-01-25T23:00:04.416Z,102173.44
2023-01-25T23:02:30.896Z,102181.88
2023-01-25T23:04:57.986Z,102184.19
2023-01-25T23:07:24.680Z,102181.88
2023-01-25T23:09:54.011Z,102172.69
2023-01-25T23:12:20.842Z,102180.19
2023-01-25T23:44:29.011Z,102169.19
2023-01-25T23:52:13.398Z,102175.00
2023-01-25T23:54:41.634Z,102158.00
